sensor_id;sensor_type;location;lat;lon;timestamp;P1;durP1;ratioP1;P2;durP2;ratioP2
19814;SDS011;10067;53.092;8.800;2023-11-19T00:00:05;13.67;;;12.27;;
19814;SDS011;10067;53.092;8.800;2023-11-19T00:02:36;15.80;;;12.00;;
19814;SDS011;10067;53.092;8.800;2023-11-19T00:05:04;13.07;;;11.53;;
19814;SDS011;10067;53.092;8.800;2023-11-19T00:07:31;15.77;;;12.97;;
19814;SDS011;10067;53.092;8.800;2023-11-19T00:09:58;14.30;;;12.33;;
19814;SDS011;10067;53.092;8.800;2023-11-19T00:12:34;18.60;;;13.93;;
19814;SDS011;10067;53.092;8.800;2023-11-19T00:15:01;15.87;;;13.80;;
19814;SDS011;10067;53.092;8.800;2023-11-19T00:17:27;16.20;;;13.40;;
19814;SDS011;10067;53.092;8.800;2023-11-19T00:19:54;19.07;;;14.77;;
19814;SDS011;10067;53.092;8.800;2023-11-19T00:22:21;19.57;;;15.03;;
19814;SDS011;10067;53.092;8.800;2023-11-19T00:24:48;20.40;;;15.67;;
19814;SDS011;10067;53.092;8.800;2023-11-19T00:27:15;20.27;;;16.53;;
19814;SDS011;10067;53.092;8.800;2023-11-19T00:29:41;20.80;;;17.23;;
19814;SDS011;10067;53.092;8.800;2023-11-19T00:32:07;20.53;;;16.80;;
19814;SDS011;10067;53.092;8.800;2023-11-19T00:34:34;24.17;;;18.23;;
19814;SDS011;10067;53.092;8.800;2023-11-19T00:37:00;26.27;;;18.93;;
19814;SDS011;10067;53.092;8.800;2023-11-19T00:39:30;23.00;;;18.00;;
19814;SDS011;10067;53.092;8.800;2023-11-19T00:41:56;26.90;;;19.57;;
19814;SDS011;10067;53.092;8.800;2023-11-19T00:44:22;24.90;;;19.77;;
19814;SDS011;10067;53.092;8.800;2023-11-19T00:46:49;24.53;;;19.97;;
19814;SDS011;10067;53.092;8.800;2023-11-19T00:49:15;27.40;;;21.27;;
19814;SDS011;10067;53.092;8.800;2023-11-19T00:51:42;27.97;;;22.13;;
19814;SDS011;10067;53.092;8.800;2023-11-19T00:54:08;27.33;;;20.37;;
19814;SDS011;10067;53.092;8.800;2023-11-19T00:56:36;30.57;;;23.47;;
19814;SDS011;10067;53.092;8.800;2023-11-19T00:59:02;33.20;;;21.90;;
19814;SDS011;10067;53.092;8.800;2023-11-19T01:01:29;31.27;;;22.17;;
19814;SDS011;10067;53.092;8.800;2023-11-19T01:03:55;30.00;;;22.40;;
19814;SDS011;10067;53.092;8.800;2023-11-19T01:06:28;28.92;;;23.10;;
19814;SDS011;10067;53.092;8.800;2023-11-19T01:08:55;30.90;;;21.90;;
19814;SDS011;10067;53.092;8.800;2023-11-19T01:11:22;33.40;;;24.40;;
19814;SDS011;10067;53.092;8.800;2023-11-19T01:13:51;32.20;;;23.80;;
19814;SDS011;10067;53.092;8.800;2023-11-19T01:16:17;35.97;;;24.40;;
19814;SDS011;10067;53.092;8.800;2023-11-19T01:18:44;38.10;;;24.77;;
19814;SDS011;10067;53.092;8.800;2023-11-19T01:21:11;31.48;;;23.52;;
19814;SDS011;10067;53.092;8.800;2023-11-19T01:23:39;44.05;;;25.85;;
19814;SDS011;10067;53.092;8.800;2023-11-19T01:26:08;39.20;;;25.23;;
19814;SDS011;10067;53.092;8.800;2023-11-19T01:28:35;33.25;;;24.73;;
19814;SDS011;10067;53.092;8.800;2023-11-19T01:31:03;30.33;;;23.57;;
19814;SDS011;10067;53.092;8.800;2023-11-19T01:33:29;30.98;;;22.90;;
19814;SDS011;10067;53.092;8.800;2023-11-19T01:35:55;31.83;;;23.77;;
19814;SDS011;10067;53.092;8.800;2023-11-19T01:38:23;32.78;;;24.05;;
19814;SDS011;10067;53.092;8.800;2023-11-19T01:40:50;34.30;;;23.85;;
19814;SDS011;10067;53.092;8.800;2023-11-19T01:43:30;36.78;;;25.80;;
19814;SDS011;10067;53.092;8.800;2023-11-19T01:45:57;34.80;;;25.33;;
19814;SDS011;10067;53.092;8.800;2023-11-19T01:48:24;36.30;;;25.63;;
19814;SDS011;10067;53.092;8.800;2023-11-19T01:50:51;36.15;;;25.65;;
19814;SDS011;10067;53.092;8.800;2023-11-19T01:53:18;37.70;;;27.08;;
19814;SDS011;10067;53.092;8.800;2023-11-19T01:55:45;38.75;;;26.45;;
19814;SDS011;10067;53.092;8.800;2023-11-19T01:58:12;39.72;;;26.30;;
19814;SDS011;10067;53.092;8.800;2023-11-19T02:00:39;39.00;;;27.58;;
19814;SDS011;10067;53.092;8.800;2023-11-19T02:03:05;43.58;;;27.30;;
19814;SDS011;10067;53.092;8.800;2023-11-19T02:05:34;41.85;;;27.17;;
19814;SDS011;10067;53.092;8.800;2023-11-19T02:08:01;43.40;;;28.00;;
19814;SDS011;10067;53.092;8.800;2023-11-19T02:10:28;41.25;;;27.58;;
19814;SDS011;10067;53.092;8.800;2023-11-19T02:12:54;46.15;;;28.55;;
19814;SDS011;10067;53.092;8.800;2023-11-19T02:15:21;43.83;;;29.52;;
19814;SDS011;10067;53.092;8.800;2023-11-19T02:17:49;44.83;;;29.05;;
19814;SDS011;10067;53.092;8.800;2023-11-19T02:20:15;46.30;;;29.23;;
19814;SDS011;10067;53.092;8.800;2023-11-19T02:22:46;48.55;;;30.77;;
19814;SDS011;10067;53.092;8.800;2023-11-19T02:25:15;49.63;;;29.52;;
19814;SDS011;10067;53.092;8.800;2023-11-19T02:27:48;52.90;;;31.38;;
19814;SDS011;10067;53.092;8.800;2023-11-19T02:30:16;51.97;;;31.83;;
19814;SDS011;10067;53.092;8.800;2023-11-19T02:32:42;48.70;;;31.33;;
19814;SDS011;10067;53.092;8.800;2023-11-19T02:35:08;54.50;;;33.22;;
19814;SDS011;10067;53.092;8.800;2023-11-19T02:37:35;53.03;;;33.53;;
19814;SDS011;10067;53.092;8.800;2023-11-19T02:40:01;60.03;;;34.60;;
19814;SDS011;10067;53.092;8.800;2023-11-19T02:42:29;62.17;;;36.42;;
19814;SDS011;10067;53.092;8.800;2023-11-19T02:44:57;62.50;;;36.47;;
19814;SDS011;10067;53.092;8.800;2023-11-19T02:47:24;71.85;;;37.83;;
19814;SDS011;10067;53.092;8.800;2023-11-19T02:49:50;62.15;;;37.85;;
19814;SDS011;10067;53.092;8.800;2023-11-19T02:52:18;68.50;;;38.78;;
19814;SDS011;10067;53.092;8.800;2023-11-19T02:54:44;66.43;;;38.90;;
19814;SDS011;10067;53.092;8.800;2023-11-19T02:57:10;69.30;;;38.40;;
19814;SDS011;10067;53.092;8.800;2023-11-19T02:59:38;64.85;;;36.88;;
19814;SDS011;10067;53.092;8.800;2023-11-19T03:02:08;62.97;;;37.53;;
19814;SDS011;10067;53.092;8.800;2023-11-19T03:04:36;63.90;;;36.97;;
19814;SDS011;10067;53.092;8.800;2023-11-19T03:07:03;65.65;;;36.63;;
19814;SDS011;10067;53.092;8.800;2023-11-19T03:09:30;58.88;;;35.97;;
19814;SDS011;10067;53.092;8.800;2023-11-19T03:11:56;60.03;;;36.85;;
19814;SDS011;10067;53.092;8.800;2023-11-19T03:14:23;58.03;;;35.00;;
19814;SDS011;10067;53.092;8.800;2023-11-19T03:16:49;56.97;;;34.30;;
19814;SDS011;10067;53.092;8.800;2023-11-19T03:19:17;56.10;;;34.45;;
19814;SDS011;10067;53.092;8.800;2023-11-19T03:21:43;52.28;;;34.67;;
19814;SDS011;10067;53.092;8.800;2023-11-19T03:24:10;59.25;;;34.72;;
19814;SDS011;10067;53.092;8.800;2023-11-19T03:26:36;52.97;;;33.15;;
19814;SDS011;10067;53.092;8.800;2023-11-19T03:29:03;52.88;;;32.72;;
19814;SDS011;10067;53.092;8.800;2023-11-19T03:31:29;60.60;;;33.45;;
19814;SDS011;10067;53.092;8.800;2023-11-19T03:33:56;53.83;;;32.28;;
19814;SDS011;10067;53.092;8.800;2023-11-19T03:36:23;59.17;;;33.30;;
19814;SDS011;10067;53.092;8.800;2023-11-19T03:38:50;51.08;;;31.67;;
19814;SDS011;10067;53.092;8.800;2023-11-19T03:41:17;54.53;;;30.92;;
19814;SDS011;10067;53.092;8.800;2023-11-19T03:43:44;57.05;;;32.45;;
19814;SDS011;10067;53.092;8.800;2023-11-19T03:46:17;54.30;;;32.85;;
19814;SDS011;10067;53.092;8.800;2023-11-19T03:48:44;58.58;;;34.08;;
19814;SDS011;10067;53.092;8.800;2023-11-19T03:51:11;56.63;;;32.88;;
19814;SDS011;10067;53.092;8.800;2023-11-19T03:53:41;60.50;;;32.90;;
19814;SDS011;10067;53.092;8.800;2023-11-19T03:56:08;57.03;;;32.20;;
19814;SDS011;10067;53.092;8.800;2023-11-19T03:58:35;57.67;;;30.80;;
19814;SDS011;10067;53.092;8.800;2023-11-19T04:01:03;65.80;;;32.92;;
19814;SDS011;10067;53.092;8.800;2023-11-19T04:03:29;64.90;;;32.78;;
19814;SDS011;10067;53.092;8.800;2023-11-19T04:05:56;54.10;;;32.38;;
19814;SDS011;10067;53.092;8.800;2023-11-19T04:08:22;63.97;;;34.58;;
19814;SDS011;10067;53.092;8.800;2023-11-19T04:10:50;62.40;;;32.22;;
19814;SDS011;10067;53.092;8.800;2023-11-19T04:13:18;61.47;;;32.50;;
19814;SDS011;10067;53.092;8.800;2023-11-19T04:15:44;62.85;;;32.03;;
19814;SDS011;10067;53.092;8.800;2023-11-19T04:18:11;64.13;;;31.77;;
19814;SDS011;10067;53.092;8.800;2023-11-19T04:20:37;77.22;;;32.70;;
19814;SDS011;10067;53.092;8.800;2023-11-19T04:23:04;56.28;;;31.38;;
19814;SDS011;10067;53.092;8.800;2023-11-19T04:25:30;61.60;;;33.88;;
19814;SDS011;10067;53.092;8.800;2023-11-19T04:27:58;58.15;;;32.72;;
19814;SDS011;10067;53.092;8.800;2023-11-19T04:30:24;64.18;;;32.22;;
19814;SDS011;10067;53.092;8.800;2023-11-19T04:32:51;61.53;;;32.03;;
19814;SDS011;10067;53.092;8.800;2023-11-19T04:35:17;54.97;;;32.13;;
19814;SDS011;10067;53.092;8.800;2023-11-19T04:37:44;59.35;;;31.42;;
19814;SDS011;10067;53.092;8.800;2023-11-19T04:40:11;62.88;;;32.78;;
19814;SDS011;10067;53.092;8.800;2023-11-19T04:42:38;58.95;;;30.33;;
19814;SDS011;10067;53.092;8.800;2023-11-19T04:45:07;58.67;;;30.63;;
19814;SDS011;10067;53.092;8.800;2023-11-19T04:47:35;55.78;;;29.85;;
19814;SDS011;10067;53.092;8.800;2023-11-19T04:50:01;66.13;;;29.60;;
19814;SDS011;10067;53.092;8.800;2023-11-19T04:52:29;51.85;;;28.80;;
19814;SDS011;10067;53.092;8.800;2023-11-19T04:54:55;61.75;;;28.60;;
19814;SDS011;10067;53.092;8.800;2023-11-19T04:57:21;50.80;;;27.25;;
19814;SDS011;10067;53.092;8.800;2023-11-19T04:59:48;50.90;;;27.45;;
19814;SDS011;10067;53.092;8.800;2023-11-19T05:02:16;62.40;;;26.90;;
19814;SDS011;10067;53.092;8.800;2023-11-19T05:04:42;58.05;;;28.35;;
19814;SDS011;10067;53.092;8.800;2023-11-19T05:07:09;57.30;;;27.30;;
19814;SDS011;10067;53.092;8.800;2023-11-19T05:09:35;55.75;;;28.05;;
19814;SDS011;10067;53.092;8.800;2023-11-19T05:12:02;46.72;;;25.80;;
19814;SDS011;10067;53.092;8.800;2023-11-19T05:14:28;50.58;;;25.23;;
19814;SDS011;10067;53.092;8.800;2023-11-19T05:16:54;50.13;;;24.40;;
19814;SDS011;10067;53.092;8.800;2023-11-19T05:19:22;52.13;;;24.38;;
19814;SDS011;10067;53.092;8.800;2023-11-19T05:21:49;52.22;;;22.85;;
19814;SDS011;10067;53.092;8.800;2023-11-19T05:24:17;59.03;;;24.05;;
19814;SDS011;10067;53.092;8.800;2023-11-19T05:26:44;52.67;;;20.77;;
19814;SDS011;10067;53.092;8.800;2023-11-19T05:29:10;46.58;;;21.27;;
19814;SDS011;10067;53.092;8.800;2023-11-19T05:31:37;51.95;;;21.23;;
19814;SDS011;10067;53.092;8.800;2023-11-19T05:34:04;37.38;;;17.33;;
19814;SDS011;10067;53.092;8.800;2023-11-19T05:36:33;55.08;;;19.27;;
19814;SDS011;10067;53.092;8.800;2023-11-19T05:39:00;55.60;;;18.52;;
19814;SDS011;10067;53.092;8.800;2023-11-19T05:41:26;58.60;;;18.73;;
19814;SDS011;10067;53.092;8.800;2023-11-19T05:43:52;48.17;;;15.80;;
19814;SDS011;10067;53.092;8.800;2023-11-19T05:46:19;39.25;;;15.35;;
19814;SDS011;10067;53.092;8.800;2023-11-19T05:48:45;50.00;;;15.77;;
19814;SDS011;10067;53.092;8.800;2023-11-19T05:51:12;56.78;;;15.02;;
19814;SDS011;10067;53.092;8.800;2023-11-19T05:53:40;47.70;;;14.27;;
19814;SDS011;10067;53.092;8.800;2023-11-19T05:56:06;38.92;;;14.10;;
19814;SDS011;10067;53.092;8.800;2023-11-19T05:58:34;45.08;;;13.05;;
19814;SDS011;10067;53.092;8.800;2023-11-19T06:01:01;40.97;;;12.82;;
19814;SDS011;10067;53.092;8.800;2023-11-19T06:03:28;36.20;;;12.57;;
19814;SDS011;10067;53.092;8.800;2023-11-19T06:05:55;43.40;;;10.85;;
19814;SDS011;10067;53.092;8.800;2023-11-19T06:08:21;43.72;;;11.07;;
19814;SDS011;10067;53.092;8.800;2023-11-19T06:10:49;46.47;;;10.63;;
19814;SDS011;10067;53.092;8.800;2023-11-19T06:13:16;35.47;;;10.60;;
19814;SDS011;10067;53.092;8.800;2023-11-19T06:15:43;44.88;;;11.18;;
19814;SDS011;10067;53.092;8.800;2023-11-19T06:18:09;47.53;;;12.07;;
19814;SDS011;10067;53.092;8.800;2023-11-19T06:20:36;43.70;;;10.55;;
19814;SDS011;10067;53.092;8.800;2023-11-19T06:23:03;45.15;;;9.82;;
19814;SDS011;10067;53.092;8.800;2023-11-19T06:25:29;43.30;;;9.98;;
19814;SDS011;10067;53.092;8.800;2023-11-19T06:27:57;34.15;;;9.68;;
19814;SDS011;10067;53.092;8.800;2023-11-19T06:30:24;43.03;;;10.30;;
19814;SDS011;10067;53.092;8.800;2023-11-19T06:32:51;49.92;;;9.85;;
19814;SDS011;10067;53.092;8.800;2023-11-19T06:35:17;56.83;;;11.52;;
19814;SDS011;10067;53.092;8.800;2023-11-19T06:37:43;47.08;;;9.82;;
19814;SDS011;10067;53.092;8.800;2023-11-19T06:40:10;52.05;;;9.02;;
19814;SDS011;10067;53.092;8.800;2023-11-19T06:42:37;47.15;;;9.50;;
19814;SDS011;10067;53.092;8.800;2023-11-19T06:45:05;48.65;;;10.55;;
19814;SDS011;10067;53.092;8.800;2023-11-19T06:47:32;49.85;;;9.10;;
19814;SDS011;10067;53.092;8.800;2023-11-19T06:49:58;42.58;;;7.70;;
19814;SDS011;10067;53.092;8.800;2023-11-19T06:52:25;49.85;;;8.68;;
19814;SDS011;10067;53.092;8.800;2023-11-19T06:54:51;46.40;;;8.07;;
19814;SDS011;10067;53.092;8.800;2023-11-19T06:57:18;44.50;;;9.57;;
19814;SDS011;10067;53.092;8.800;2023-11-19T06:59:45;41.15;;;8.13;;
19814;SDS011;10067;53.092;8.800;2023-11-19T07:02:13;45.78;;;8.40;;
19814;SDS011;10067;53.092;8.800;2023-11-19T07:04:40;49.03;;;8.00;;
19814;SDS011;10067;53.092;8.800;2023-11-19T07:07:06;54.67;;;8.98;;
19814;SDS011;10067;53.092;8.800;2023-11-19T07:09:32;53.80;;;7.35;;
19814;SDS011;10067;53.092;8.800;2023-11-19T07:11:59;59.25;;;10.73;;
19814;SDS011;10067;53.092;8.800;2023-11-19T07:14:26;58.38;;;10.48;;
19814;SDS011;10067;53.092;8.800;2023-11-19T07:16:53;57.10;;;8.73;;
19814;SDS011;10067;53.092;8.800;2023-11-19T07:19:22;58.75;;;8.98;;
19814;SDS011;10067;53.092;8.800;2023-11-19T07:21:48;57.65;;;9.55;;
19814;SDS011;10067;53.092;8.800;2023-11-19T07:24:15;53.42;;;8.80;;
19814;SDS011;10067;53.092;8.800;2023-11-19T07:26:42;49.60;;;7.90;;
19814;SDS011;10067;53.092;8.800;2023-11-19T07:29:08;46.30;;;8.80;;
19814;SDS011;10067;53.092;8.800;2023-11-19T07:31:35;51.28;;;8.10;;
19814;SDS011;10067;53.092;8.800;2023-11-19T07:34:02;49.17;;;7.15;;
19814;SDS011;10067;53.092;8.800;2023-11-19T07:36:28;43.80;;;8.07;;
19814;SDS011;10067;53.092;8.800;2023-11-19T07:38:56;58.13;;;7.60;;
19814;SDS011;10067;53.092;8.800;2023-11-19T07:41:22;48.55;;;7.43;;
19814;SDS011;10067;53.092;8.800;2023-11-19T07:43:50;39.97;;;7.20;;
19814;SDS011;10067;53.092;8.800;2023-11-19T07:46:17;57.33;;;8.45;;
19814;SDS011;10067;53.092;8.800;2023-11-19T07:48:44;42.25;;;9.02;;
19814;SDS011;10067;53.092;8.800;2023-11-19T07:51:12;44.00;;;8.40;;
19814;SDS011;10067;53.092;8.800;2023-11-19T07:53:39;52.42;;;8.05;;
19814;SDS011;10067;53.092;8.800;2023-11-19T07:56:06;48.80;;;7.00;;
19814;SDS011;10067;53.092;8.800;2023-11-19T07:58:33;45.60;;;7.68;;
19814;SDS011;10067;53.092;8.800;2023-11-19T08:01:00;45.00;;;7.93;;
19814;SDS011;10067;53.092;8.800;2023-11-19T08:03:27;50.83;;;8.40;;
19814;SDS011;10067;53.092;8.800;2023-11-19T08:05:55;50.08;;;9.73;;
19814;SDS011;10067;53.092;8.800;2023-11-19T08:08:21;53.78;;;12.50;;
19814;SDS011;10067;53.092;8.800;2023-11-19T08:10:49;56.78;;;9.18;;
19814;SDS011;10067;53.092;8.800;2023-11-19T08:13:16;55.17;;;10.02;;
19814;SDS011;10067;53.092;8.800;2023-11-19T08:15:43;50.25;;;8.80;;
19814;SDS011;10067;53.092;8.800;2023-11-19T08:18:10;47.90;;;8.60;;
19814;SDS011;10067;53.092;8.800;2023-11-19T08:20:36;56.90;;;8.48;;
19814;SDS011;10067;53.092;8.800;2023-11-19T08:23:02;59.40;;;10.30;;
19814;SDS011;10067;53.092;8.800;2023-11-19T08:25:30;64.45;;;12.68;;
19814;SDS011;10067;53.092;8.800;2023-11-19T08:27:57;53.08;;;9.32;;
19814;SDS011;10067;53.092;8.800;2023-11-19T08:30:24;51.38;;;8.38;;
19814;SDS011;10067;53.092;8.800;2023-11-19T08:32:50;52.97;;;12.35;;
19814;SDS011;10067;53.092;8.800;2023-11-19T08:35:16;46.35;;;9.10;;
19814;SDS011;10067;53.092;8.800;2023-11-19T08:37:43;42.78;;;7.53;;
19814;SDS011;10067;53.092;8.800;2023-11-19T08:40:11;48.35;;;7.65;;
19814;SDS011;10067;53.092;8.800;2023-11-19T08:42:38;38.28;;;6.80;;
19814;SDS011;10067;53.092;8.800;2023-11-19T08:45:06;39.22;;;7.45;;
19814;SDS011;10067;53.092;8.800;2023-11-19T08:47:33;56.75;;;9.23;;
19814;SDS011;10067;53.092;8.800;2023-11-19T08:49:59;47.20;;;8.10;;
19814;SDS011;10067;53.092;8.800;2023-11-19T08:52:26;58.15;;;9.10;;
19814;SDS011;10067;53.092;8.800;2023-11-19T08:54:52;46.95;;;7.68;;
19814;SDS011;10067;53.092;8.800;2023-11-19T08:57:19;45.75;;;8.60;;
19814;SDS011;10067;53.092;8.800;2023-11-19T08:59:45;42.92;;;8.52;;
19814;SDS011;10067;53.092;8.800;2023-11-19T09:02:13;52.33;;;7.30;;
19814;SDS011;10067;53.092;8.800;2023-11-19T09:04:41;43.40;;;7.68;;
19814;SDS011;10067;53.092;8.800;2023-11-19T09:07:08;41.95;;;7.80;;
19814;SDS011;10067;53.092;8.800;2023-11-19T09:09:34;40.15;;;7.90;;
19814;SDS011;10067;53.092;8.800;2023-11-19T09:12:01;45.10;;;8.68;;
19814;SDS011;10067;53.092;8.800;2023-11-19T09:14:28;33.22;;;7.03;;
19814;SDS011;10067;53.092;8.800;2023-11-19T09:16:55;37.95;;;7.63;;
19814;SDS011;10067;53.092;8.800;2023-11-19T09:19:23;40.88;;;7.53;;
19814;SDS011;10067;53.092;8.800;2023-11-19T09:21:49;39.72;;;7.50;;
19814;SDS011;10067;53.092;8.800;2023-11-19T09:24:16;48.13;;;8.48;;
19814;SDS011;10067;53.092;8.800;2023-11-19T09:26:42;43.20;;;7.18;;
19814;SDS011;10067;53.092;8.800;2023-11-19T09:29:09;45.25;;;10.23;;
19814;SDS011;10067;53.092;8.800;2023-11-19T09:31:35;53.72;;;14.63;;
19814;SDS011;10067;53.092;8.800;2023-11-19T09:34:03;39.80;;;8.55;;
19814;SDS011;10067;53.092;8.800;2023-11-19T09:36:31;43.97;;;8.10;;
19814;SDS011;10067;53.092;8.800;2023-11-19T09:38:58;38.75;;;8.63;;
19814;SDS011;10067;53.092;8.800;2023-11-19T09:41:26;45.25;;;7.53;;
19814;SDS011;10067;53.092;8.800;2023-11-19T09:43:53;47.45;;;8.18;;
19814;SDS011;10067;53.092;8.800;2023-11-19T09:46:19;38.53;;;7.72;;
19814;SDS011;10067;53.092;8.800;2023-11-19T09:48:45;49.35;;;8.43;;
19814;SDS011;10067;53.092;8.800;2023-11-19T09:51:13;50.42;;;9.05;;
19814;SDS011;10067;53.092;8.800;2023-11-19T09:53:41;48.80;;;8.13;;
19814;SDS011;10067;53.092;8.800;2023-11-19T09:56:07;48.60;;;8.52;;
19814;SDS011;10067;53.092;8.800;2023-11-19T09:58:34;50.58;;;8.93;;
19814;SDS011;10067;53.092;8.800;2023-11-19T10:01:00;48.65;;;8.65;;
19814;SDS011;10067;53.092;8.800;2023-11-19T10:03:28;46.35;;;7.90;;
19814;SDS011;10067;53.092;8.800;2023-11-19T10:05:57;45.78;;;7.60;;
19814;SDS011;10067;53.092;8.800;2023-11-19T10:08:23;48.20;;;9.27;;
19814;SDS011;10067;53.092;8.800;2023-11-19T10:10:51;40.35;;;7.63;;
19814;SDS011;10067;53.092;8.800;2023-11-19T10:13:17;47.50;;;8.95;;
19814;SDS011;10067;53.092;8.800;2023-11-19T10:15:44;45.47;;;8.65;;
19814;SDS011;10067;53.092;8.800;2023-11-19T10:18:10;47.05;;;7.57;;
19814;SDS011;10067;53.092;8.800;2023-11-19T10:20:36;52.83;;;8.23;;
19814;SDS011;10067;53.092;8.800;2023-11-19T10:23:03;49.28;;;6.97;;
19814;SDS011;10067;53.092;8.800;2023-11-19T10:25:30;51.15;;;10.15;;
19814;SDS011;10067;53.092;8.800;2023-11-19T10:27:59;47.25;;;11.30;;
19814;SDS011;10067;53.092;8.800;2023-11-19T10:30:26;55.72;;;11.63;;
19814;SDS011;10067;53.092;8.800;2023-11-19T10:33:02;44.97;;;9.35;;
19814;SDS011;10067;53.092;8.800;2023-11-19T10:35:29;53.60;;;10.00;;
19814;SDS011;10067;53.092;8.800;2023-11-19T10:37:55;53.10;;;8.65;;
19814;SDS011;10067;53.092;8.800;2023-11-19T10:40:21;52.28;;;8.27;;
19814;SDS011;10067;53.092;8.800;2023-11-19T10:42:48;52.78;;;8.20;;
19814;SDS011;10067;53.092;8.800;2023-11-19T10:45:25;51.80;;;8.57;;
19814;SDS011;10067;53.092;8.800;2023-11-19T10:47:51;52.72;;;8.13;;
19814;SDS011;10067;53.092;8.800;2023-11-19T10:50:18;41.33;;;8.38;;
19814;SDS011;10067;53.092;8.800;2023-11-19T10:52:45;56.75;;;7.20;;
19814;SDS011;10067;53.092;8.800;2023-11-19T10:55:12;40.38;;;7.72;;
19814;SDS011;10067;53.092;8.800;2023-11-19T10:57:42;39.08;;;7.20;;
19814;SDS011;10067;53.092;8.800;2023-11-19T11:00:09;46.05;;;7.80;;
19814;SDS011;10067;53.092;8.800;2023-11-19T11:02:41;36.53;;;7.53;;
19814;SDS011;10067;53.092;8.800;2023-11-19T11:05:08;41.83;;;8.93;;
19814;SDS011;10067;53.092;8.800;2023-11-19T11:07:34;36.13;;;7.65;;
19814;SDS011;10067;53.092;8.800;2023-11-19T11:10:01;56.92;;;12.50;;
19814;SDS011;10067;53.092;8.800;2023-11-19T11:12:28;46.45;;;12.07;;
19814;SDS011;10067;53.092;8.800;2023-11-19T11:14:56;37.55;;;9.88;;
19814;SDS011;10067;53.092;8.800;2023-11-19T11:17:24;44.10;;;10.65;;
19814;SDS011;10067;53.092;8.800;2023-11-19T11:19:52;35.63;;;10.75;;
19814;SDS011;10067;53.092;8.800;2023-11-19T11:22:19;39.13;;;10.07;;
19814;SDS011;10067;53.092;8.800;2023-11-19T11:25:00;29.42;;;8.00;;
19814;SDS011;10067;53.092;8.800;2023-11-19T11:27:41;55.33;;;18.50;;
19814;SDS011;10067;53.092;8.800;2023-11-19T11:30:13;39.65;;;9.18;;
19814;SDS011;10067;53.092;8.800;2023-11-19T11:32:43;30.35;;;8.88;;
19814;SDS011;10067;53.092;8.800;2023-11-19T11:37:56;27.63;;;6.00;;
19814;SDS011;10067;53.092;8.800;2023-11-19T11:40:26;37.15;;;10.82;;
19814;SDS011;10067;53.092;8.800;2023-11-19T11:42:52;36.10;;;7.15;;
19814;SDS011;10067;53.092;8.800;2023-11-19T11:45:19;34.80;;;7.45;;
19814;SDS011;10067;53.092;8.800;2023-11-19T11:48:10;34.17;;;6.55;;
19814;SDS011;10067;53.092;8.800;2023-11-19T11:50:36;40.60;;;8.88;;
19814;SDS011;10067;53.092;8.800;2023-11-19T11:53:14;41.78;;;8.57;;
19814;SDS011;10067;53.092;8.800;2023-11-19T11:55:51;37.92;;;7.68;;
19814;SDS011;10067;53.092;8.800;2023-11-19T11:58:20;39.65;;;7.53;;
19814;SDS011;10067;53.092;8.800;2023-11-19T12:00:49;47.10;;;11.95;;
19814;SDS011;10067;53.092;8.800;2023-11-19T12:03:19;39.28;;;7.60;;
19814;SDS011;10067;53.092;8.800;2023-11-19T12:05:46;48.63;;;9.15;;
19814;SDS011;10067;53.092;8.800;2023-11-19T12:08:15;48.70;;;10.02;;
19814;SDS011;10067;53.092;8.800;2023-11-19T12:10:43;43.67;;;7.63;;
19814;SDS011;10067;53.092;8.800;2023-11-19T12:13:10;46.17;;;8.68;;
19814;SDS011;10067;53.092;8.800;2023-11-19T12:15:47;43.55;;;7.82;;
19814;SDS011;10067;53.092;8.800;2023-11-19T12:18:33;43.40;;;9.32;;
19814;SDS011;10067;53.092;8.800;2023-11-19T12:21:00;49.72;;;8.50;;
19814;SDS011;10067;53.092;8.800;2023-11-19T12:23:29;51.03;;;8.43;;
19814;SDS011;10067;53.092;8.800;2023-11-19T12:25:56;49.50;;;8.82;;
19814;SDS011;10067;53.092;8.800;2023-11-19T12:28:23;42.10;;;7.60;;
19814;SDS011;10067;53.092;8.800;2023-11-19T12:30:51;46.28;;;8.00;;
19814;SDS011;10067;53.092;8.800;2023-11-19T12:33:18;46.63;;;7.30;;
19814;SDS011;10067;53.092;8.800;2023-11-19T12:35:46;46.45;;;7.93;;
19814;SDS011;10067;53.092;8.800;2023-11-19T12:38:18;40.47;;;7.35;;
19814;SDS011;10067;53.092;8.800;2023-11-19T12:40:46;46.75;;;7.65;;
19814;SDS011;10067;53.092;8.800;2023-11-19T12:43:21;41.88;;;8.30;;
19814;SDS011;10067;53.092;8.800;2023-11-19T12:45:47;36.28;;;6.72;;
19814;SDS011;10067;53.092;8.800;2023-11-19T12:48:13;39.13;;;6.82;;
19814;SDS011;10067;53.092;8.800;2023-11-19T12:50:53;36.53;;;7.68;;
19814;SDS011;10067;53.092;8.800;2023-11-19T12:53:19;46.63;;;7.28;;
19814;SDS011;10067;53.092;8.800;2023-11-19T12:55:47;35.10;;;5.80;;
19814;SDS011;10067;53.092;8.800;2023-11-19T12:58:27;34.85;;;6.65;;
19814;SDS011;10067;53.092;8.800;2023-11-19T13:00:58;40.92;;;7.78;;
19814;SDS011;10067;53.092;8.800;2023-11-19T13:03:28;37.40;;;7.90;;
19814;SDS011;10067;53.092;8.800;2023-11-19T13:06:00;30.00;;;7.68;;
19814;SDS011;10067;53.092;8.800;2023-11-19T13:08:27;23.02;;;4.88;;
19814;SDS011;10067;53.092;8.800;2023-11-19T13:10:55;26.30;;;6.20;;
19814;SDS011;10067;53.092;8.800;2023-11-19T13:13:23;16.23;;;3.70;;
19814;SDS011;10067;53.092;8.800;2023-11-19T13:15:50;19.35;;;4.40;;
19814;SDS011;10067;53.092;8.800;2023-11-19T13:18:16;9.27;;;3.83;;
19814;SDS011;10067;53.092;8.800;2023-11-19T13:20:45;8.27;;;3.30;;
19814;SDS011;10067;53.092;8.800;2023-11-19T13:23:11;10.73;;;3.50;;
19814;SDS011;10067;53.092;8.800;2023-11-19T13:25:40;7.40;;;2.50;;
19814;SDS011;10067;53.092;8.800;2023-11-19T13:28:07;11.63;;;4.45;;
19814;SDS011;10067;53.092;8.800;2023-11-19T13:30:37;10.15;;;5.63;;
19814;SDS011;10067;53.092;8.800;2023-11-19T13:33:03;6.68;;;3.63;;
19814;SDS011;10067;53.092;8.800;2023-11-19T13:35:29;9.73;;;3.72;;
19814;SDS011;10067;53.092;8.800;2023-11-19T13:37:56;9.10;;;2.15;;
19814;SDS011;10067;53.092;8.800;2023-11-19T13:40:23;10.15;;;1.98;;
19814;SDS011;10067;53.092;8.800;2023-11-19T13:42:50;8.55;;;2.58;;
19814;SDS011;10067;53.092;8.800;2023-11-19T13:45:18;13.82;;;3.17;;
19814;SDS011;10067;53.092;8.800;2023-11-19T13:47:45;13.32;;;3.85;;
19814;SDS011;10067;53.092;8.800;2023-11-19T13:50:12;10.32;;;3.17;;
19814;SDS011;10067;53.092;8.800;2023-11-19T13:52:40;13.75;;;2.97;;
19814;SDS011;10067;53.092;8.800;2023-11-19T13:55:07;10.45;;;3.55;;
19814;SDS011;10067;53.092;8.800;2023-11-19T13:57:34;14.00;;;3.95;;
19814;SDS011;10067;53.092;8.800;2023-11-19T14:00:00;17.90;;;3.83;;
19814;SDS011;10067;53.092;8.800;2023-11-19T14:02:29;15.93;;;3.90;;
19814;SDS011;10067;53.092;8.800;2023-11-19T14:04:56;19.90;;;4.45;;
19814;SDS011;10067;53.092;8.800;2023-11-19T14:07:22;19.50;;;4.47;;
19814;SDS011;10067;53.092;8.800;2023-11-19T14:09:48;23.65;;;5.22;;
19814;SDS011;10067;53.092;8.800;2023-11-19T14:12:15;20.10;;;5.55;;
19814;SDS011;10067;53.092;8.800;2023-11-19T14:14:42;25.02;;;5.93;;
19814;SDS011;10067;53.092;8.800;2023-11-19T14:17:09;28.40;;;6.43;;
19814;SDS011;10067;53.092;8.800;2023-11-19T14:19:37;27.13;;;5.63;;
19814;SDS011;10067;53.092;8.800;2023-11-19T14:22:04;33.85;;;7.22;;
19814;SDS011;10067;53.092;8.800;2023-11-19T14:24:30;25.77;;;6.30;;
19814;SDS011;10067;53.092;8.800;2023-11-19T14:26:57;31.25;;;7.03;;
19814;SDS011;10067;53.092;8.800;2023-11-19T14:29:24;37.20;;;7.93;;
19814;SDS011;10067;53.092;8.800;2023-11-19T14:31:51;35.28;;;6.80;;